createdAt,value
2022-08-19T00:01:38.058Z,19.77
2022-08-19T00:04:07.753Z,19.34
2022-08-19T00:06:36.725Z,19.70
2022-08-19T00:09:05.896Z,19.64
2022-08-19T00:11:34.509Z,19.64
2022-08-19T00:14:02.142Z,19.85
2022-08-19T00:16:29.749Z,19.82
2022-08-19T00:18:58.026Z,20.02
2022-08-19T00:21:26.030Z,19.65
2022-08-19T00:23:53.997Z,19.52
2022-08-19T00:26:22.211Z,19.62
2022-08-19T00:28:49.747Z,19.24
2022-08-19T00:31:19.843Z,19.35
2022-08-19T00:33:47.789Z,19.36
2022-08-19T00:36:15.364Z,19.27
2022-08-19T00:38:44.501Z,19.04
2022-08-19T00:41:16.209Z,19.42
2022-08-19T00:43:43.738Z,19.07
2022-08-19T00:46:11.284Z,18.99
2022-08-19T00:48:39.247Z,18.65
2022-08-19T00:51:07.306Z,18.60
2022-08-19T00:53:35.454Z,18.82
2022-08-19T00:56:04.399Z,18.55
2022-08-19T00:58:33.836Z,18.51
2022-08-19T01:01:02.106Z,18.35
2022-08-19T01:03:56.820Z,18.50
2022-08-19T01:06:19.162Z,19.05
2022-08-19T01:08:50.203Z,18.57
2022-08-19T01:11:18.418Z,18.39
2022-08-19T01:13:50.076Z,18.16
2022-08-19T01:16:19.255Z,18.29
2022-08-19T01:18:47.053Z,18.28
2022-08-19T01:21:40.526Z,18.52
2022-08-19T01:24:08.442Z,18.35
2022-08-19T01:26:40.270Z,18.02
2022-08-19T01:29:10.153Z,18.01
2022-08-19T01:31:39.334Z,17.93
2022-08-19T01:34:07.508Z,18.33
2022-08-19T01:36:37.461Z,18.86
2022-08-19T01:39:07.214Z,18.41
2022-08-19T01:41:35.657Z,18.43
2022-08-19T01:44:17.635Z,18.18
2022-08-19T01:46:49.102Z,18.14
2022-08-19T01:49:17.200Z,18.10
2022-08-19T01:51:44.788Z,18.21
2022-08-19T01:54:14.354Z,18.37
2022-08-19T01:56:59.248Z,18.19
2022-08-19T01:59:27.188Z,17.91
2022-08-19T02:01:55.081Z,18.03
2022-08-19T02:04:22.944Z,18.19
2022-08-19T02:06:50.490Z,17.85
2022-08-19T02:09:18.131Z,17.67
2022-08-19T02:11:46.041Z,17.93
2022-08-19T02:14:14.484Z,17.97
2022-08-19T02:16:42.145Z,17.85
2022-08-19T02:19:10.255Z,18.09
2022-08-19T02:21:37.832Z,17.90
2022-08-19T02:24:05.452Z,17.82
2022-08-19T02:26:33.955Z,17.94
2022-08-19T02:29:01.626Z,18.09
2022-08-19T02:31:29.341Z,18.24
2022-08-19T02:33:57.972Z,18.14
2022-08-19T02:36:26.413Z,18.32
2022-08-19T02:38:54.538Z,18.26
2022-08-19T02:41:27.109Z,18.19
2022-08-19T02:44:29.857Z,18.01
2022-08-19T02:46:44.714Z,18.24
2022-08-19T02:49:12.501Z,17.93
2022-08-19T02:51:42.808Z,17.59
2022-08-19T02:54:12.051Z,17.65
2022-08-19T02:56:40.504Z,17.92
2022-08-19T02:59:12.231Z,17.95
2022-08-19T03:01:41.979Z,17.87
2022-08-19T03:04:10.462Z,17.69
2022-08-19T03:06:39.305Z,17.80
2022-08-19T03:11:52.851Z,18.64
2022-08-19T03:14:20.993Z,18.89
2022-08-19T03:16:50.245Z,18.87
2022-08-19T03:19:18.998Z,19.11
2022-08-19T03:21:47.125Z,18.41
2022-08-19T03:24:15.582Z,18.61
2022-08-19T03:26:44.499Z,18.22
2022-08-19T03:29:13.368Z,18.41
2022-08-19T03:31:52.077Z,18.71
2022-08-19T03:34:22.500Z,18.15
2022-08-19T03:36:50.111Z,18.77
2022-08-19T03:39:17.771Z,18.93
2022-08-19T03:41:48.456Z,18.99
2022-08-19T03:44:24.621Z,18.67
2022-08-19T03:46:56.489Z,19.04
2022-08-19T03:49:27.212Z,18.76
2022-08-19T03:51:57.836Z,19.04
2022-08-19T03:54:26.132Z,19.26
2022-08-19T03:56:55.214Z,19.30
2022-08-19T03:59:27.242Z,19.60
2022-08-19T04:01:55.806Z,19.08
2022-08-19T04:04:24.830Z,19.12
2022-08-19T04:06:57.282Z,19.23
2022-08-19T04:09:25.261Z,19.65
2022-08-19T04:11:57.176Z,19.91
2022-08-19T04:14:26.835Z,19.60
2022-08-19T04:16:54.569Z,19.71
2022-08-19T04:19:22.442Z,20.13
2022-08-19T04:21:51.307Z,19.95
2022-08-19T04:24:19.296Z,19.52
2022-08-19T04:26:47.108Z,20.22
2022-08-19T04:29:16.960Z,20.61
2022-08-19T04:31:45.851Z,20.66
2022-08-19T04:34:15.163Z,20.72
2022-08-19T04:36:43.690Z,20.80
2022-08-19T04:39:18.288Z,20.78
2022-08-19T04:42:04.978Z,21.06
2022-08-19T04:44:35.181Z,21.96
2022-08-19T04:47:11.285Z,22.59
2022-08-19T04:49:39.193Z,22.73
2022-08-19T04:52:09.723Z,23.03
2022-08-19T04:54:39.256Z,23.26
2022-08-19T04:57:11.381Z,22.38
2022-08-19T04:59:39.869Z,22.79
2022-08-19T05:02:09.047Z,22.76
2022-08-19T05:04:40.318Z,23.14
2022-08-19T05:07:08.896Z,23.28
2022-08-19T05:09:57.702Z,23.01
2022-08-19T05:12:29.148Z,22.94
2022-08-19T05:14:58.211Z,23.41
2022-08-19T05:17:29.440Z,23.28
2022-08-19T05:20:17.840Z,22.88
2022-08-19T05:22:47.395Z,23.53
2022-08-19T05:25:16.861Z,23.34
2022-08-19T05:27:44.394Z,23.51
2022-08-19T05:30:12.905Z,22.53
2022-08-19T05:32:40.841Z,22.60
2022-08-19T05:35:08.654Z,23.60
2022-08-19T05:37:36.574Z,23.92
2022-08-19T05:40:04.444Z,24.41
2022-08-19T05:42:32.107Z,24.45
2022-08-19T05:45:00.071Z,24.65
2022-08-19T05:47:27.585Z,24.44
2022-08-19T05:49:58.664Z,24.70
2022-08-19T05:52:28.422Z,24.91
2022-08-19T05:54:57.454Z,25.25
2022-08-19T05:57:25.477Z,25.39
2022-08-19T05:59:58.226Z,25.42
2022-08-19T06:02:27.424Z,24.81
2022-08-19T06:04:55.599Z,25.98
2022-08-19T06:07:23.455Z,26.35
2022-08-19T06:10:00.103Z,27.11
2022-08-19T06:12:34.231Z,26.88
2022-08-19T06:15:03.501Z,26.89
2022-08-19T06:17:32.146Z,27.50
2022-08-19T06:20:00.494Z,28.57
2022-08-19T06:22:29.253Z,28.91
2022-08-19T06:24:57.294Z,29.51
2022-08-19T06:27:24.909Z,29.57
2022-08-19T06:29:52.476Z,29.38
2022-08-19T06:32:20.378Z,29.46
2022-08-19T06:34:47.974Z,28.82
2022-08-19T06:37:15.590Z,30.07
2022-08-19T06:39:44.985Z,31.00
2022-08-19T06:42:14.482Z,30.50
2022-08-19T06:44:43.818Z,30.23
2022-08-19T06:47:23.822Z,29.55
2022-08-19T06:50:02.971Z,29.66
2022-08-19T06:52:34.138Z,31.29
2022-08-19T06:57:49.406Z,30.38
2022-08-19T07:00:17.219Z,31.27
2022-08-19T07:02:49.600Z,31.97
2022-08-19T07:05:23.717Z,32.23
2022-08-19T07:07:51.451Z,31.88
2022-08-19T07:10:19.690Z,30.72
2022-08-19T07:12:48.841Z,31.52
2022-08-19T07:15:17.137Z,31.47
2022-08-19T07:17:49.367Z,31.05
2022-08-19T07:20:20.711Z,31.97
2022-08-19T07:22:49.166Z,32.69
2022-08-19T07:25:18.503Z,31.77
2022-08-19T07:27:46.386Z,30.97
2022-08-19T07:30:16.652Z,32.76
2022-08-19T07:32:44.304Z,31.81
2022-08-19T07:35:11.939Z,32.01
2022-08-19T07:37:45.309Z,31.55
2022-08-19T07:40:13.203Z,32.60
2022-08-19T07:42:41.190Z,33.32
2022-08-19T07:45:09.331Z,33.63
2022-08-19T07:47:47.930Z,33.11
2022-08-19T07:50:21.308Z,31.67
2022-08-19T07:52:50.911Z,31.67
2022-08-19T07:55:41.684Z,33.99
2022-08-19T07:58:11.170Z,34.30
2022-08-19T08:00:39.360Z,34.00
2022-08-19T08:03:07.360Z,34.54
2022-08-19T08:05:53.583Z,34.60
2022-08-19T08:08:44.386Z,34.33
2022-08-19T08:11:16.877Z,32.53
2022-08-19T08:13:45.520Z,31.87
2022-08-19T08:16:14.036Z,32.76
2022-08-19T08:18:50.276Z,32.88
2022-08-19T08:21:18.799Z,31.68
2022-08-19T08:23:46.369Z,31.89
2022-08-19T08:26:15.959Z,33.70
2022-08-19T08:28:47.773Z,34.00
2022-08-19T08:31:15.903Z,32.61
2022-08-19T08:33:43.873Z,33.02
2022-08-19T08:36:12.184Z,32.03
2022-08-19T08:38:40.833Z,31.84
2022-08-19T08:41:29.101Z,32.09
2022-08-19T08:43:58.415Z,33.15
2022-08-19T08:46:31.561Z,33.15
2022-08-19T08:49:12.577Z,32.99
2022-08-19T08:54:19.047Z,33.02
2022-08-19T08:56:47.463Z,33.01
2022-08-19T08:59:21.930Z,33.62
2022-08-19T09:01:50.007Z,32.72
2022-08-19T09:04:18.384Z,32.75
2022-08-19T09:07:18.439Z,32.86
2022-08-19T09:09:57.815Z,33.04
2022-08-19T09:12:33.453Z,34.13
2022-08-19T09:15:03.150Z,34.16
2022-08-19T09:17:33.863Z,33.10
2022-08-19T09:20:14.695Z,32.99
2022-08-19T09:22:45.413Z,33.22
2022-08-19T09:25:18.278Z,33.62
2022-08-19T09:30:43.328Z,33.53
2022-08-19T09:33:10.910Z,33.06
2022-08-19T09:35:53.255Z,33.33
2022-08-19T09:38:22.467Z,32.52
2022-08-19T09:40:51.103Z,33.21
2022-08-19T09:43:32.816Z,33.28
2022-08-19T09:46:02.783Z,32.71
2022-08-19T09:48:30.412Z,33.36
2022-08-19T09:51:03.973Z,31.47
2022-08-19T09:53:33.244Z,31.92
2022-08-19T09:56:04.083Z,32.54
2022-08-19T09:58:32.435Z,32.42
2022-08-19T10:01:01.347Z,30.52
2022-08-19T10:03:30.446Z,31.42
2022-08-19T10:05:58.899Z,32.71
2022-08-19T10:08:28.609Z,31.72
2022-08-19T10:10:56.895Z,32.03
2022-08-19T10:13:28.318Z,32.40
2022-08-19T10:16:07.432Z,30.67
2022-08-19T10:18:44.287Z,32.02
2022-08-19T10:21:19.908Z,31.40
2022-08-19T10:23:49.712Z,30.07
2022-08-19T10:26:22.111Z,33.55
2022-08-19T10:28:50.454Z,33.13
2022-08-19T10:31:21.017Z,32.54
2022-08-19T10:34:10.120Z,33.09
2022-08-19T10:36:56.179Z,33.86
2022-08-19T10:39:24.523Z,33.89
2022-08-19T10:41:58.738Z,34.31
2022-08-19T10:44:32.489Z,32.09
2022-08-19T10:47:00.465Z,32.03
2022-08-19T10:49:28.474Z,32.34
2022-08-19T10:52:18.798Z,32.77
2022-08-19T10:55:08.271Z,32.52
2022-08-19T10:57:59.358Z,32.11
2022-08-19T11:00:26.660Z,33.76
2022-08-19T11:02:54.189Z,33.97
2022-08-19T11:08:22.334Z,32.18
2022-08-19T11:10:52.576Z,31.39
2022-08-19T11:13:20.568Z,30.03
2022-08-19T11:15:48.721Z,30.26
2022-08-19T11:18:18.208Z,32.20
2022-08-19T11:20:46.187Z,33.72
2022-08-19T11:23:13.795Z,33.86
2022-08-19T11:25:41.614Z,31.61
2022-08-19T11:28:09.762Z,32.48
2022-08-19T11:30:38.705Z,32.61
2022-08-19T11:33:06.658Z,31.43
2022-08-19T11:35:34.827Z,33.42
2022-08-19T11:38:02.668Z,33.24
2022-08-19T11:40:30.263Z,33.01
2022-08-19T11:42:58.343Z,33.80
2022-08-19T11:45:27.037Z,33.16
2022-08-19T11:47:54.806Z,32.67
2022-08-19T11:50:24.655Z,33.39
2022-08-19T11:52:55.306Z,32.98
2022-08-19T11:55:23.493Z,33.54
2022-08-19T11:57:51.170Z,31.85
2022-08-19T12:00:18.768Z,30.62
2022-08-19T12:02:46.766Z,31.25
2022-08-19T12:05:17.156Z,32.38
2022-08-19T12:07:45.073Z,31.89
2022-08-19T12:10:13.094Z,31.64
2022-08-19T12:12:43.845Z,32.70
2022-08-19T12:15:15.717Z,31.88
2022-08-19T12:17:43.593Z,31.33
2022-08-19T12:20:11.799Z,31.36
2022-08-19T12:22:40.596Z,32.47
2022-08-19T12:25:10.774Z,32.17
2022-08-19T12:27:40.716Z,31.75
2022-08-19T12:30:11.188Z,32.29
2022-08-19T12:32:39.178Z,32.09
2022-08-19T12:35:12.696Z,31.31
2022-08-19T12:37:42.841Z,30.91
2022-08-19T12:40:10.947Z,31.39
2022-08-19T12:42:42.229Z,30.21
2022-08-19T12:45:14.721Z,29.79
2022-08-19T12:47:51.813Z,31.45
2022-08-19T12:50:23.129Z,30.83
2022-08-19T12:52:50.953Z,31.27
2022-08-19T12:55:20.011Z,30.32
2022-08-19T12:57:49.832Z,31.25
2022-08-19T13:00:18.897Z,31.11
2022-08-19T13:02:47.924Z,31.26
2022-08-19T13:05:17.357Z,30.64
2022-08-19T13:07:47.902Z,30.12
2022-08-19T13:10:19.782Z,29.64
2022-08-19T13:12:48.896Z,29.86
2022-08-19T13:15:23.676Z,30.07
2022-08-19T13:17:52.595Z,29.99
2022-08-19T13:20:21.907Z,29.72
2022-08-19T13:22:50.671Z,30.05
2022-08-19T13:25:20.734Z,30.52
2022-08-19T13:27:50.501Z,29.57
2022-08-19T13:30:37.493Z,29.90
2022-08-19T13:33:17.971Z,30.11
2022-08-19T13:35:47.418Z,29.17
2022-08-19T13:38:16.665Z,28.30
2022-08-19T13:40:44.645Z,29.25
2022-08-19T13:43:22.310Z,28.91
2022-08-19T13:45:59.802Z,29.05
2022-08-19T13:48:28.174Z,28.53
2022-08-19T13:50:56.369Z,28.51
2022-08-19T13:53:24.781Z,28.76
2022-08-19T13:55:52.440Z,28.63
2022-08-19T13:58:20.451Z,29.13
2022-08-19T14:00:49.519Z,29.02
2022-08-19T14:03:17.541Z,28.74
2022-08-19T14:05:45.161Z,28.58
2022-08-19T14:08:15.375Z,28.73
2022-08-19T14:10:45.691Z,28.78
2022-08-19T14:13:16.032Z,28.31
2022-08-19T14:15:44.046Z,28.57
2022-08-19T14:20:58.137Z,28.20
2022-08-19T14:23:26.652Z,28.53
2022-08-19T14:26:00.814Z,28.03
2022-08-19T14:28:31.684Z,28.34
2022-08-19T14:30:59.249Z,28.27
2022-08-19T14:33:28.327Z,28.30
2022-08-19T14:35:59.884Z,27.90
2022-08-19T14:38:31.449Z,27.70
2022-08-19T14:41:09.101Z,28.30
2022-08-19T14:43:36.777Z,28.50
2022-08-19T14:46:04.865Z,28.90
2022-08-19T14:48:32.390Z,29.20
2022-08-19T14:50:59.989Z,29.53
2022-08-19T14:53:27.941Z,29.30
2022-08-19T14:55:55.617Z,29.55
2022-08-19T14:58:28.846Z,29.44
2022-08-19T15:00:59.734Z,29.88
2022-08-19T15:03:27.477Z,30.13
2022-08-19T15:05:55.090Z,30.11
2022-08-19T15:11:10.868Z,30.02
2022-08-19T15:13:38.993Z,30.00
2022-08-19T15:16:06.964Z,29.97
2022-08-19T15:18:50.981Z,29.90
2022-08-19T15:21:27.477Z,29.86
2022-08-19T15:23:57.130Z,29.97
2022-08-19T15:26:26.454Z,29.90
2022-08-19T15:28:54.075Z,29.89
2022-08-19T15:31:28.649Z,29.29
2022-08-19T15:33:59.254Z,29.27
2022-08-19T15:39:12.768Z,29.04
2022-08-19T15:41:42.005Z,28.24
2022-08-19T15:44:11.352Z,28.22
2022-08-19T15:46:39.880Z,27.56
2022-08-19T15:49:08.399Z,27.57
2022-08-19T15:51:36.839Z,27.55
2022-08-19T15:54:05.737Z,26.86
2022-08-19T15:56:57.692Z,27.10
2022-08-19T15:59:47.283Z,26.95
2022-08-19T16:02:34.958Z,26.27
2022-08-19T16:05:25.785Z,26.24
2022-08-19T16:07:53.480Z,25.99
2022-08-19T16:10:27.080Z,26.43
2022-08-19T16:12:59.385Z,26.60
2022-08-19T16:15:28.468Z,26.55
2022-08-19T16:17:56.994Z,26.43
2022-08-19T16:20:27.601Z,26.06
2022-08-19T16:22:58.767Z,25.57
2022-08-19T16:25:29.401Z,25.75
2022-08-19T16:28:07.606Z,25.35
2022-08-19T16:30:39.725Z,24.94
2022-08-19T16:33:08.738Z,24.89
2022-08-19T16:35:36.429Z,25.28
2022-08-19T16:38:04.411Z,25.10
2022-08-19T16:40:32.509Z,24.99
2022-08-19T16:43:00.986Z,24.74
2022-08-19T16:45:28.776Z,24.63
2022-08-19T16:47:58.510Z,24.49
2022-08-19T16:50:47.767Z,24.53
2022-08-19T16:53:19.086Z,24.17
2022-08-19T16:55:51.135Z,23.90
2022-08-19T16:58:19.748Z,23.93
2022-08-19T17:00:48.806Z,23.94
2022-08-19T17:03:17.735Z,24.25
2022-08-19T17:05:49.342Z,23.63
2022-08-19T17:08:18.329Z,23.30
2022-08-19T17:11:16.438Z,23.48
2022-08-19T17:13:34.821Z,23.38
2022-08-19T17:16:02.972Z,23.07
2022-08-19T17:18:31.701Z,23.27
2022-08-19T17:21:00.397Z,23.66
2022-08-19T17:23:42.238Z,23.16
2022-08-19T17:26:14.036Z,23.19
2022-08-19T17:28:49.513Z,23.15
2022-08-19T17:31:18.202Z,22.89
2022-08-19T17:33:48.397Z,22.11
2022-08-19T17:36:17.699Z,22.41
2022-08-19T17:38:46.057Z,22.43
2022-08-19T17:41:14.170Z,22.42
2022-08-19T17:43:43.785Z,21.94
2022-08-19T17:46:18.279Z,21.80
2022-08-19T17:48:52.547Z,21.50
2022-08-19T17:51:41.942Z,21.51
2022-08-19T17:54:11.753Z,21.17
2022-08-19T17:56:39.669Z,21.11
2022-08-19T17:59:13.696Z,21.36
2022-08-19T18:01:54.253Z,21.13
2022-08-19T18:04:23.574Z,21.11
2022-08-19T18:06:53.077Z,21.22
2022-08-19T18:09:26.394Z,21.19
2022-08-19T18:11:54.859Z,20.90
2022-08-19T18:14:33.475Z,21.20
2022-08-19T18:17:05.816Z,21.48
2022-08-19T18:19:41.352Z,21.48
2022-08-19T18:22:14.065Z,21.08
2022-08-19T18:24:42.246Z,20.95
2022-08-19T18:27:10.384Z,20.73
2022-08-19T18:29:38.815Z,21.20
2022-08-19T18:32:16.703Z,20.54
2022-08-19T18:34:46.310Z,20.67
2022-08-19T18:37:14.253Z,20.53
2022-08-19T18:40:00.913Z,20.59
2022-08-19T18:42:49.369Z,20.51
2022-08-19T18:45:35.351Z,20.31
2022-08-19T18:48:25.805Z,20.68
2022-08-19T18:50:57.146Z,20.48
2022-08-19T18:53:25.653Z,20.25
2022-08-19T18:55:55.642Z,20.14
2022-08-19T18:58:26.335Z,19.93
2022-08-19T19:00:57.497Z,19.95
2022-08-19T19:03:28.049Z,19.84
2022-08-19T19:08:41.481Z,19.79
2022-08-19T19:11:10.780Z,19.92
2022-08-19T19:13:46.486Z,20.10
2022-08-19T19:16:14.535Z,19.59
2022-08-19T19:18:42.882Z,19.40
2022-08-19T19:21:11.051Z,19.44
2022-08-19T19:23:41.190Z,19.21
2022-08-19T19:26:10.889Z,19.45
2022-08-19T19:28:43.848Z,19.16
2022-08-19T19:31:16.283Z,19.00
2022-08-19T19:33:45.209Z,19.06
2022-08-19T19:36:13.409Z,19.32
2022-08-19T19:38:48.336Z,18.95
2022-08-19T19:41:18.622Z,18.74
2022-08-19T19:43:46.368Z,18.70
2022-08-19T19:46:16.309Z,18.75
2022-08-19T19:48:45.301Z,18.74
2022-08-19T19:51:13.893Z,18.62
2022-08-19T19:53:42.099Z,18.60
2022-08-19T19:56:10.468Z,18.48
2022-08-19T19:58:38.157Z,18.78
2022-08-19T20:01:09.600Z,18.94
2022-08-19T20:03:37.816Z,18.81
2022-08-19T20:06:08.330Z,18.67
2022-08-19T20:08:54.888Z,18.97
2022-08-19T20:11:33.657Z,18.99
2022-08-19T20:14:03.777Z,18.90
2022-08-19T20:16:32.801Z,19.03
2022-08-19T20:19:01.268Z,18.96
2022-08-19T20:21:31.733Z,18.81
2022-08-19T20:24:09.008Z,18.49
2022-08-19T20:26:37.786Z,18.59
2022-08-19T20:29:13.734Z,18.55
2022-08-19T20:31:57.347Z,18.58
2022-08-19T20:34:27.773Z,18.22
2022-08-19T20:36:55.972Z,18.37
2022-08-19T20:39:23.582Z,18.40
2022-08-19T20:41:51.543Z,18.43
2022-08-19T20:44:19.328Z,18.43
2022-08-19T20:46:54.850Z,18.11
2022-08-19T20:49:26.931Z,18.37
2022-08-19T20:51:55.985Z,18.34
2022-08-19T20:54:24.405Z,18.01
2022-08-19T20:56:53.154Z,17.79
2022-08-19T20:59:20.890Z,17.83
2022-08-19T21:01:49.328Z,17.67
2022-08-19T21:04:17.114Z,17.78
2022-08-19T21:06:46.091Z,17.81
2022-08-19T21:09:15.240Z,17.35
2022-08-19T21:11:43.212Z,17.19
2022-08-19T21:14:11.100Z,17.58
2022-08-19T21:16:39.200Z,17.36
2022-08-19T21:19:06.779Z,17.36
2022-08-19T21:21:35.251Z,17.55
2022-08-19T21:24:03.575Z,17.42
2022-08-19T21:26:31.186Z,17.42
2022-08-19T21:28:58.872Z,17.28
2022-08-19T21:31:26.806Z,17.09
2022-08-19T21:33:54.443Z,17.22
2022-08-19T21:36:22.104Z,16.97
2022-08-19T21:38:50.160Z,16.62
2022-08-19T21:41:17.715Z,16.93
2022-08-19T21:43:45.348Z,16.79
2022-08-19T21:46:13.324Z,16.82
2022-08-19T21:48:40.994Z,16.81
2022-08-19T21:51:08.932Z,16.31
2022-08-19T21:53:37.472Z,16.54
2022-08-19T21:56:08.796Z,16.90
2022-08-19T21:58:39.667Z,16.56
2022-08-19T22:01:08.320Z,16.64
2022-08-19T22:03:37.141Z,16.83
2022-08-19T22:06:04.948Z,17.00
2022-08-19T22:08:32.522Z,16.97
2022-08-19T22:11:00.548Z,17.08
2022-08-19T22:13:29.192Z,17.25
2022-08-19T22:15:56.813Z,17.02
2022-08-19T22:18:24.997Z,16.96
2022-08-19T22:20:52.580Z,17.10
2022-08-19T22:23:20.058Z,17.24
2022-08-19T22:25:48.009Z,17.34
2022-08-19T22:28:19.067Z,17.51
2022-08-19T22:30:56.427Z,17.48
2022-08-19T22:33:24.514Z,17.52
2022-08-19T22:35:52.727Z,17.51
2022-08-19T22:38:20.754Z,17.43
2022-08-19T22:40:49.392Z,17.42
2022-08-19T22:43:21.067Z,17.18
2022-08-19T22:45:49.719Z,17.31
2022-08-19T22:48:19.423Z,17.21
2022-08-19T22:51:07.691Z,17.39
2022-08-19T22:53:36.903Z,17.27
2022-08-19T22:56:05.118Z,17.01
2022-08-19T22:58:32.672Z,17.02
2022-08-19T23:01:01.299Z,17.15
2022-08-19T23:03:29.242Z,16.91
2022-08-19T23:05:56.842Z,17.01
2022-08-19T23:08:25.482Z,16.91
2022-08-19T23:10:53.355Z,16.92
2022-08-19T23:13:20.888Z,16.85
2022-08-19T23:15:48.858Z,16.57
2022-08-19T23:18:16.475Z,16.63
2022-08-19T23:20:45.011Z,16.78
2022-08-19T23:23:14.408Z,16.48
2022-08-19T23:25:42.012Z,16.87
2022-08-19T23:28:28.271Z,16.67
2022-08-19T23:30:56.446Z,16.64
2022-08-19T23:33:46.785Z,16.43
2022-08-19T23:36:18.012Z,16.55
2022-08-19T23:38:46.744Z,16.29
2022-08-19T23:41:15.819Z,16.12
2022-08-19T23:43:44.762Z,16.39
2022-08-19T23:46:13.681Z,16.24
2022-08-19T23:48:41.228Z,16.19
2022-08-19T23:51:10.063Z,16.17
2022-08-19T23:53:39.494Z,16.36
2022-08-19T23:56:07.769Z,16.21
2022-08-19T23:58:36.822Z,16.32
